Luang-Prabang, Lao Peoples Republic

11:37 PM +07 on April 24, 2017 (GMT +0700)
Luang Prabang | | Change Station

Elev 1001 ft 19.88 °N, 102.13 °E | Updated 3 hours ago

Clear
Clear
81 °F
Feels Like 85 °F
N
0
Wind Variable Wind from North

Today
High -- | Low -- °F
--% Chance of Precip.
Yesterday
High -- | Low -- °F
Precip. -- in
Pressure 29.71 in
Visibility -9999.0 miles
Clouds
Heat Index 85 °F
Dew Point 73 °F
Humidity 79%
Rainfall 0.00 in
Snow Depth Not available.
5:46 AM 6:32 PM
Waning Crescent, 5% visible
METAR VLLB 241300Z 00000KT CAVOK 27/23 Q1006 NOSIG
Pressure 29.71 in
Visibility -9999.0 miles
Clouds
Heat Index 85 °F
Dew Point 73 °F
Humidity 79%
Rainfall 0.00 in
Snow Depth Not available.
5:46 AM 6:32 PM
Waning Crescent, 5% visible
METAR VLLB 241300Z 00000KT CAVOK 27/23 Q1006 NOSIG

Get Severe Weather Alerts

Thanks for signing up!

Be on the lookout for a verification email in your inbox.

You'll start receiving the daily forecast at 8 AM.

×

10-Day Weather Forecast

No radar image for this location.
×

Almanac

Astronomy

Apr. 24, 2017 Rise Set
Actual Time
Civil Twilight
Nautical Twilight
Astronomical Twilight
Moon
Length of Visible Light
Length of Day
Tomorrow will be .
, % of the Moon is Illuminated

Today's Extremes

Country Highs Country Lows

Community

WunderPhotos

WunderBlog® & News

Nearby

Air Quality

  Air Quality AQ Index Pollutant
Not available.

Snow Depth

Station Depth Elevation

Earthquake Activity

City Distance Mag. Time & Date
Minimum magnitude displayed is 2.5.

Coastal Water Temperatures

Place Temperature

Stations

Nearby Weather Stations

Station Location Temp. Windchill Dew Point Humidity Wind Precip. Elev Updated Type